Sites météorologiques /Documentations/ Programmes:

Météo Québec
Site web version 2
Modèle de Meteotemplate

CoCoRaHS Canada
Station CAN-QC-39

En Alerte
*** Système d'alerte
en urgence ***

Québec en Alerte

Météo Alerte Québec

Météo Centre

État des routes
Québec 511

Orage Québec

Québec Vortex
chasseurs de tempêtes

Hydro Météo (info-rivière)

Avalanche Québec

Agrométéo Québec

Bulletin des agriculteurs secteur Québec

Réseau Météo-Québec

Réseau Météo des Provinces Atlantiques

Réseau Météo Ontario

Séismes Canada
l'Est du Canada

Fire Smoke Canada

Canwarn Québec

Climat Québec

Environnement Canada

MétéoMédia

Leuven Template

Réseau de transport de la Capitale (RTC)


Équipements et logiciels de la station:

Davis Pro 2

Weather Display

Asus/Intel

Rapidenet Canada

Select another period ( hide this area )

Les unités Période Custom range Directly to
Métriques Impériales Les deux
Journalier - Par semaine Mensuel Annuel
use both date-selectors for a custom range
previous Jour
With this date

WeatherUnderground graphs for this period ( click here )


Journalier - Résumé pour samedi 15 décembre 2018
Heure Temp. ( °C ) Dew pt. ( °C ) Vent ( km/h ) de Rafale ( km/h ) Pression ( hPa ) Humid.( % ) Rainrate ( cm ) Solaire ( W/m2 )
Élevé3,8 1,6 10,8 SO ( 225/393 ) 16,7 1021,8 97 1,80 327
Moyenne1,7 0,7 2,1 SO #74/184 5,5 1017,9 93 1,70 71 #86/184
Bas0,3 -0,2 -   0,0 1015,0 85 -  
Journalier - Tabular details for samedi 15 décembre 2018
Heure Temp. ( °C ) Dew pt. ( °C ) Vent ( km/h ) de Rafale ( km/h ) Pression ( hPa ) Humid.( % ) Rainrate ( cm ) Solaire ( W/m2 )
00:04 0,3 -0,1   Calme   1015,2 97 - -
00:09 0,3 -0,1   Calme   1015,2 97 - -
00:14 0,4 -0,2   Calme   1015,1 96 - -
00:19 0,4 -0,1   Calme   1015,1 97 - -
00:24 0,4 0,0   Calme   1015,0 97 - -
00:29 0,4 0,0   Calme   1015,1 97 - -
00:34 0,4 0,0   Calme   1015,1 97 - -
00:39 0,4 0,0   Calme   1015,0 97 - -
00:44 0,4 0,0   Calme   1015,0 97 - -
00:49 0,4 0,0   Calme   1015,0 97 - -
00:54 0,4 0,0   Calme   1015,0 97 - -
00:59 0,4 0,0   Calme   1015,0 97 - -
01:04 0,4 0,0   Calme   1015,0 97 - -
01:09 0,4 0,0   Calme   1015,0 97 - -
01:14 0,4 0,0   Calme   1015,0 97 - -
01:19 0,4 0,0   Calme   1015,0 97 - -
01:24 0,4 0,0   Calme   1015,0 97 - -
01:29 0,4 0,0   Calme   1015,0 97 - -
01:34 0,4 0,0   Calme   1015,0 97 - -
01:39 0,4 0,0   Calme   1015,0 97 - -
01:44 0,4 0,0   Calme   1015,0 97 - -
01:49 0,4 0,0   Calme 1,9 1015,2 97 - -
01:54 0,5 0,1   Calme   1015,3 97 - -
01:59 0,5 0,1   Calme   1015,4 97 - -
02:04 0,5 0,1   Calme   1015,2 97 - -
02:09 0,5 0,1   Calme   1015,3 97 - -
02:14 0,6 0,1   Calme   1015,3 97 - -
02:19 0,6 0,2   Calme   1015,4 97 - -
02:24 0,6 0,2   Calme   1015,4 97 - -
02:29 0,6 0,2   Calme   1015,4 97 - -
02:34 0,7 0,2 0,3 NE 1,9 1015,5 97 - -
02:39 0,7 0,3 0,2 NE 1,9 1015,5 97 - -
02:44 0,8 0,3   Calme 1,9 1015,5 97 - -
02:49 0,8 0,3 0,2 NE 1,9 1015,4 97 - -
02:54 0,8 0,4 0,2 NE 1,9 1015,5 97 - -
02:59 0,9 0,4 0,5 NE 3,7 1015,4 97 - -
03:04 0,9 0,4 3,9 NE 4,2 1015,6 97 - -
03:09 0,9 0,5 0,2 NE 1,9 1015,4 97 - -
03:14 0,9 0,5 0,2 Ouest 1,9 1015,5 97 - -
03:19 0,9 0,5 0,5 OSO 1,9 1015,5 97 - -
03:24 1,0 0,6 2,3 OSO 3,7 1015,5 97 - -
03:29 1,0 0,6 0,2 OSO 1,9 1015,5 97 - -
03:34 1,1 0,6 1,9 OSO 4,2 1015,4 97 - -
03:39 1,1 0,6 5,3 OSO 11,1 1015,4 97 - -
03:44 1,1 0,6 3,1 SO 3,7 1015,6 97 - -
03:49 1,0 0,6 1,0 SO 1,9 1015,7 97 - -
03:54 0,9 0,5 1,8 Sud 3,7 1015,7 97 - -
03:59 0,9 0,5 1,8 OSO 5,6 1015,8 97 - -
04:04 0,9 0,5 4,5 SO 11,1 1015,9 97 - -
04:09 0,9 0,4 1,4 SSO 3,7 1016,0 97 - -
04:14 0,9 0,4 4,0 SO 11,1 1015,9 97 - -
04:19 0,8 0,4 2,6 SO 5,6 1016,1 97 - -
04:24 0,8 0,4 5,6 SO 11,1 1016,1 97 - -
04:29 0,8 0,4 3,1 SO 9,3 1016,1 97 - -
04:34 0,8 0,2 2,4 SSO 3,7 1016,0 96 - -
04:39 0,8 0,2 4,5 SO 9,3 1016,0 96 - -
04:44 0,8 0,2 2,3 SO 5,6 1016,1 96 - -
04:49 0,8 0,2 0,3 SO 1,9 1016,1 96 - -
04:54 0,8 0,2 1,6 OSO 3,7 1016,1 96 - -
04:59 0,7 0,2 2,7 SO 5,6 1016,1 96 - -
05:04 0,7 0,2 2,7 SO 9,3 1016,3 96 - -
05:09 0,7 0,2 0,8 OSO 3,7 1016,3 96 - -
05:14 0,7 0,2 5,5 SSO 9,3 1016,2 96 - -
05:19 0,7 0,2 1,6 Sud 3,7 1016,2 96 - -
05:24 0,7 0,2 0,5 SSO 1,9 1016,2 96 - -
05:29 0,7 0,2   Calme 1,9 1016,3 96 - -
05:34 0,7 0,2 0,6 SSO 5,6 1016,3 96 - -
05:39 0,7 0,2 1,6 SO 3,7 1016,4 96 - -
05:44 0,8 0,2 0,8 SO 2,1 1016,5 96 - -
05:49 0,8 0,2 0,8 SO 3,7 1016,5 96 - -
05:54 0,7 0,2 0,3 SO 1,9 1016,6 96 - -
05:59 0,8 0,2 0,8 SO 3,7 1016,5 96 - -
06:04 0,8 0,2 0,6 SO 3,7 1016,7 96 - -
06:09 0,8 0,2 1,8 SO 3,7 1016,8 96 - -
06:14 0,8 0,3 3,5 SO 9,3 1016,9 96 - -
06:19 0,9 0,3 3,9 SO 11,1 1017,1 96 - -
06:24 0,9 0,3 6,6 SSO 13,0 1017,0 96 - -
06:29 0,9 0,4 1,4 SSO 9,3 1017,2 96 - -
06:34 0,9 0,2 2,3 SSO 3,7 1017,3 95 - -
06:39 1,0 0,3 6,0 SO 14,8 1017,3 95 - -
06:44 1,0 0,3 3,7 SO 9,3 1017,5 95 - -
06:49 1,1 0,3 5,1 SO 13,0 1017,5 95 - -
06:54 1,1 0,4 3,1 SO 9,3 1017,5 95 - -
06:59 1,2 0,4 1,6 SSO 9,3 1017,7 95 - -
07:04 1,2 0,4 6,8 SO 9,3 1017,7 95 - -
07:09 1,3 0,4 6,3 OSO 14,8 1017,8 94 - -
07:14 1,3 0,5 5,3 SO 11,1 1017,9 94 - -
07:19 1,4 0,6 6,4 SO 11,1 1018,0 94 - -
07:24 1,4 0,6 7,6 SSO 16,7 1018,1 94 - -
07:29 1,4 0,4 4,8 SO 13,0 1018,1 93 - -
07:34 1,5 0,5 5,1 SO 9,3 1018,1 93 - -
07:39 1,5 0,7 4,5 SSO 11,1 1018,2 94 - -
07:44 1,5 0,7 5,5 SO 11,1 1018,3 94 - -
07:49 1,5 0,7 2,6 Sud 8,4 1018,5 94 - -
07:54 1,5 0,7 5,6 SO 9,3 1018,7 94 - -
07:59 1,5 0,7 3,1 SSO 3,7 1018,5 94 - -
08:04 1,6 0,7 2,9 SSE 5,6 1018,7 94 - -
08:09 1,6 0,7 4,0 SO 9,3 1018,7 94 - -
08:14 1,6 0,6 2,9 SO 5,6 1018,9 93 - 5
08:19 1,6 0,6 2,7 SSO 9,3 1018,9 93 - 5
08:24 1,7 0,7 4,3 SO 11,1 1019,0 93 - 5
08:29 1,7 0,7 2,4 SO 11,1 1019,2 93 - 7
08:34 1,7 0,7 5,1 SO 11,1 1019,1 93 - 7
08:39 1,7 0,7 3,2 SO 8,4 1019,1 93 - 9
08:44 1,7 0,7 4,8 SO 11,1 1019,2 93 - 11
08:49 1,7 0,7 3,2 SO 9,3 1019,3 93 - 11
08:54 1,8 0,8 2,6 SO 5,6 1019,4 93 - 12
08:59 1,8 0,8 2,1 SO 9,3 1019,5 93 - 14
09:04 1,8 0,8 3,5 SSO 4,2 1019,6 93 - 16
09:09 1,8 0,8 1,3 SSO 4,2 1019,6 93 - 16
09:14 1,8 0,8 2,4 SSO 9,3 1019,5 93 0,20 21
09:19 1,8 0,8 3,4 Sud 3,7 1019,6 93 0,20 26
09:23 1,8 0,8 2,7 SSO 3,7 1019,6 93 0,20 32
09:29 1,8 0,8 3,1 SSO 5,6 1019,5 93 0,20 47
09:34 1,9 0,9 1,3 SO 9,3 1019,4 93 0,20 67
09:39 1,9 0,9 4,7 SSO 13,0 1019,5 93 0,20 107
09:44 2,1 1,1 2,7 SSO 11,1 1019,4 93 0,20 146
09:49 2,2 1,0 5,3 SO 11,1 1019,5 92 0,20 109
09:54 2,2 1,1 10,8 SSO 14,8 1019,4 92 0,20 130
09:59 2,3 1,2 5,8 SO 14,8 1019,4 92 0,20 149
10:04 2,3 1,0 3,9 SO 11,1 1019,3 91 0,20 74
10:09 2,3 1,0 8,2 Sud 14,8 1019,4 91 0,20 62
10:14 2,3 0,9 2,1 SO 9,3 1019,3 91 - 69
10:19 2,2 0,9 5,5 SSO 11,1 1019,5 91 - 51
10:24 2,2 0,8 3,1 SO 9,3 1019,4 91 - 90
10:29 2,2 0,9 2,1 OSO 9,3 1019,2 91 - 128
10:34 2,3 0,9 5,5 SO 11,1 1019,2 91 - 100
10:39 2,3 1,0 5,8 SO 13,0 1019,4 91 - 97
10:44 2,4 1,1 2,7 SO 3,7 1019,3 91 - 88
10:49 2,4 0,9 2,1 OSO 3,7 1019,3 90 - 79
10:54 2,5 1,0 3,7 SO 5,6 1019,3 90 - 72
10:59 2,5 1,0 1,0 SSO 2,1 1019,4 90 - 67
11:04 2,5 1,0 2,6 SSO 5,6 1019,5 90 - 74
11:09 2,6 1,1 1,9 SO 9,3 1019,4 90 - 90
11:14 2,6 1,1 2,7 OSO 3,7 1019,4 90 - 90
11:19 2,6 1,1 3,1 SSO 11,1 1019,4 90 - 77
11:24 2,6 1,1 2,1 SSO 9,3 1019,6 90 - 69
11:29 2,6 1,0 2,1 SO 6,3 1019,5 89 - 81
11:34 2,6 1,0 5,3 SO 11,1 1019,5 89 - 72
11:39 2,7 1,1 2,6 OSO 5,6 1019,7 89 - 107
11:44 2,7 1,1 2,3 SO 11,1 1019,8 89 - 111
11:49 2,8 1,2 2,3 SO 5,6 1019,9 89 - 102
11:54 2,8 1,2 5,0 SO 9,3 1019,8 89 - 81
11:59 2,8 1,2 2,4 SO 3,7 1019,8 89 - 72
12:04 2,9 1,3   Calme 2,1 1019,9 89 - 70
12:09 2,9 1,3 2,1 SSO 9,3 1019,7 89 - 81
12:14 2,9 1,2 0,2 SO 1,9 1019,8 88 - 70
12:19 3,0 1,2 1,4 SO 3,7 1019,7 88 - 98
12:24 3,1 1,3 3,1 SO 5,6 1019,8 88 - 100
12:29 3,1 1,3 0,6 SO 1,9 1019,8 88 - 88
12:34 3,1 1,2   Calme   1019,7 87 - 74
12:39 3,1 1,2 1,4 SSO 1,9 1019,6 87 - 88
12:44 3,2 1,2 2,4 SO 4,2 1019,9 87 - 109
12:49 3,2 1,2 0,3 SSO 1,9 1019,7 87 - 83
12:54 3,3 1,3 0,5 SO 9,3 1019,7 87 - 327
12:59 3,6 1,6 2,7 OSO 3,7 1019,8 87 - 239
13:04 3,7 1,6 2,7 OSO 6,3 1019,8 86 - 174
13:09 3,7 1,6 2,4 SE 9,3 1019,8 86 0,20 160
13:14 3,8 1,5 0,6 OSO 9,3 1019,8 85 0,40 153
13:19 3,8 1,5 0,8 SO 3,7 1019,8 85 0,60 195
13:24 3,8 1,6 1,1 SO 3,7 1020,0 85 0,80 105
13:29 3,8 1,5 2,6 SO 8,4 1020,0 85 1,00 98
13:34 3,7 1,4 3,4 SO 9,3 1020,1 85 1,20 69
13:39 3,6 1,3 1,8 Sud 2,1 1020,1 85 1,20 74
13:44 3,6 1,4 1,0 SSO 2,1 1020,3 86 1,40 62
13:49 3,4 1,3 1,1 OSO 4,2 1020,2 86 1,60 56
13:54 3,4 1,3   Calme   1020,4 86 1,60 49
13:59 3,4 1,3 0,2 OSO 1,9 1020,6 86 1,80 47
14:04 3,4 1,3 1,3 OSO 3,7 1020,6 86 1,80 67
14:09 3,4 1,3 1,3 OSO 11,1 1020,6 86 1,80 49
14:14 3,4 1,3 3,1 SO 13,0 1020,9 86 1,60 44
14:19 3,3 1,4 0,3 SO   1021,0 87 1,60 33
14:24 3,3 1,4   Calme   1020,9 87 1,40 33
14:29 3,3 1,3   Calme   1020,9 87 1,40 35
14:34 3,3 1,3 0,3 SO 1,9 1020,9 87 1,20 28
14:39 3,3 1,2 4,2 OSO 5,6 1021,1 86 1,20 23
14:44 3,2 1,1 0,2 SO 1,9 1021,3 86 1,20 26
14:49 3,2 1,1 1,8 SO 9,3 1021,5 86 1,00 26
14:54 3,2 1,1 2,1 SSO 5,6 1021,4 86 1,00 23
14:59 3,2 1,1 0,3 SSO 1,9 1021,6 86 1,00 19
15:04 3,2 1,1 0,3 NNO 1,9 1021,5 86 1,00 19
15:09 3,2 1,1 0,3 SSO 2,1 1021,6 86 0,80 14
15:14 3,2 1,1   Calme 1,9 1021,7 86 1,00 14
15:19 3,2 1,1   Calme   1021,8 86 0,80 12
Journalier - Résumé pour samedi 15 décembre 2018
Heure Temp. ( °C ) Dew pt. ( °C ) Vent ( km/h ) de Rafale ( km/h ) Pression ( hPa ) Humid.( % ) Rainrate ( cm ) Solaire ( W/m2 )
Élevé3,8 1,6 10,8 SO ( 225/393 ) 16,7 1021,8 97 1,80 327
Moyenne1,7 0,7 2,1 SO #74/184 5,5 1017,9 93 1,70 71 #86/184
Bas0,3 -0,2 -   0,0 1015,0 85 -  
Journalier - Tabular details for samedi 15 décembre 2018
Heure Temp. ( °C ) Dew pt. ( °C ) Vent ( km/h ) de Rafale ( km/h ) Pression ( hPa ) Humid.( % ) Rainrate ( cm ) Solaire ( W/m2 )
00:04 0,3 -0,1   Calme   1015,2 97 - -
00:09 0,3 -0,1   Calme   1015,2 97 - -
00:14 0,4 -0,2   Calme   1015,1 96 - -
00:19 0,4 -0,1   Calme   1015,1 97 - -
00:24 0,4 0,0   Calme   1015,0 97 - -
00:29 0,4 0,0   Calme   1015,1 97 - -
00:34 0,4 0,0   Calme   1015,1 97 - -
00:39 0,4 0,0   Calme   1015,0 97 - -
00:44 0,4 0,0   Calme   1015,0 97 - -
00:49 0,4 0,0   Calme   1015,0 97 - -
00:54 0,4 0,0   Calme   1015,0 97 - -
00:59 0,4 0,0   Calme   1015,0 97 - -
01:04 0,4 0,0   Calme   1015,0 97 - -
01:09 0,4 0,0   Calme   1015,0 97 - -
01:14 0,4 0,0   Calme   1015,0 97 - -
01:19 0,4 0,0   Calme   1015,0 97 - -
01:24 0,4 0,0   Calme   1015,0 97 - -
01:29 0,4 0,0   Calme   1015,0 97 - -
01:34 0,4 0,0   Calme   1015,0 97 - -
01:39 0,4 0,0   Calme   1015,0 97 - -
01:44 0,4 0,0   Calme   1015,0 97 - -
01:49 0,4 0,0   Calme 1,9 1015,2 97 - -
01:54 0,5 0,1   Calme   1015,3 97 - -
01:59 0,5 0,1   Calme   1015,4 97 - -
02:04 0,5 0,1   Calme   1015,2 97 - -
02:09 0,5 0,1   Calme   1015,3 97 - -
02:14 0,6 0,1   Calme   1015,3 97 - -
02:19 0,6 0,2   Calme   1015,4 97 - -
02:24 0,6 0,2   Calme   1015,4 97 - -
02:29 0,6 0,2   Calme   1015,4 97 - -
02:34 0,7 0,2 0,3 NE 1,9 1015,5 97 - -
02:39 0,7 0,3 0,2 NE 1,9 1015,5 97 - -
02:44 0,8 0,3   Calme 1,9 1015,5 97 - -
02:49 0,8 0,3 0,2 NE 1,9 1015,4 97 - -
02:54 0,8 0,4 0,2 NE 1,9 1015,5 97 - -
02:59 0,9 0,4 0,5 NE 3,7 1015,4 97 - -
03:04 0,9 0,4 3,9 NE 4,2 1015,6 97 - -
03:09 0,9 0,5 0,2 NE 1,9 1015,4 97 - -
03:14 0,9 0,5 0,2 Ouest 1,9 1015,5 97 - -
03:19 0,9 0,5 0,5 OSO 1,9 1015,5 97 - -
03:24 1,0 0,6 2,3 OSO 3,7 1015,5 97 - -
03:29 1,0 0,6 0,2 OSO 1,9 1015,5 97 - -
03:34 1,1 0,6 1,9 OSO 4,2 1015,4 97 - -
03:39 1,1 0,6 5,3 OSO 11,1 1015,4 97 - -
03:44 1,1 0,6 3,1 SO 3,7 1015,6 97 - -
03:49 1,0 0,6 1,0 SO 1,9 1015,7 97 - -
03:54 0,9 0,5 1,8 Sud 3,7 1015,7 97 - -
03:59 0,9 0,5 1,8 OSO 5,6 1015,8 97 - -
04:04 0,9 0,5 4,5 SO 11,1 1015,9 97 - -
04:09 0,9 0,4 1,4 SSO 3,7 1016,0 97 - -
04:14 0,9 0,4 4,0 SO 11,1 1015,9 97 - -
04:19 0,8 0,4 2,6 SO 5,6 1016,1 97 - -
04:24 0,8 0,4 5,6 SO 11,1 1016,1 97 - -
04:29 0,8 0,4 3,1 SO 9,3 1016,1 97 - -
04:34 0,8 0,2 2,4 SSO 3,7 1016,0 96 - -
04:39 0,8 0,2 4,5 SO 9,3 1016,0 96 - -
04:44 0,8 0,2 2,3 SO 5,6 1016,1 96 - -
04:49 0,8 0,2 0,3 SO 1,9 1016,1 96 - -
04:54 0,8 0,2 1,6 OSO 3,7 1016,1 96 - -
04:59 0,7 0,2 2,7 SO 5,6 1016,1 96 - -
05:04 0,7 0,2 2,7 SO 9,3 1016,3 96 - -
05:09 0,7 0,2 0,8 OSO 3,7 1016,3 96 - -
05:14 0,7 0,2 5,5 SSO 9,3 1016,2 96 - -
05:19 0,7 0,2 1,6 Sud 3,7 1016,2 96 - -
05:24 0,7 0,2 0,5 SSO 1,9 1016,2 96 - -
05:29 0,7 0,2   Calme 1,9 1016,3 96 - -
05:34 0,7 0,2 0,6 SSO 5,6 1016,3 96 - -
05:39 0,7 0,2 1,6 SO 3,7 1016,4 96 - -
05:44 0,8 0,2 0,8 SO 2,1 1016,5 96 - -
05:49 0,8 0,2 0,8 SO 3,7 1016,5 96 - -
05:54 0,7 0,2 0,3 SO 1,9 1016,6 96 - -
05:59 0,8 0,2 0,8 SO 3,7 1016,5 96 - -
06:04 0,8 0,2 0,6 SO 3,7 1016,7 96 - -
06:09 0,8 0,2 1,8 SO 3,7 1016,8 96 - -
06:14 0,8 0,3 3,5 SO 9,3 1016,9 96 - -
06:19 0,9 0,3 3,9 SO 11,1 1017,1 96 - -
06:24 0,9 0,3 6,6 SSO 13,0 1017,0 96 - -
06:29 0,9 0,4 1,4 SSO 9,3 1017,2 96 - -
06:34 0,9 0,2 2,3 SSO 3,7 1017,3 95 - -
06:39 1,0 0,3 6,0 SO 14,8 1017,3 95 - -
06:44 1,0 0,3 3,7 SO 9,3 1017,5 95 - -
06:49 1,1 0,3 5,1 SO 13,0 1017,5 95 - -
06:54 1,1 0,4 3,1 SO 9,3 1017,5 95 - -
06:59 1,2 0,4 1,6 SSO 9,3 1017,7 95 - -
07:04 1,2 0,4 6,8 SO 9,3 1017,7 95 - -
07:09 1,3 0,4 6,3 OSO 14,8 1017,8 94 - -
07:14 1,3 0,5 5,3 SO 11,1 1017,9 94 - -
07:19 1,4 0,6 6,4 SO 11,1 1018,0 94 - -
07:24 1,4 0,6 7,6 SSO 16,7 1018,1 94 - -
07:29 1,4 0,4 4,8 SO 13,0 1018,1 93 - -
07:34 1,5 0,5 5,1 SO 9,3 1018,1 93 - -
07:39 1,5 0,7 4,5 SSO 11,1 1018,2 94 - -
07:44 1,5 0,7 5,5 SO 11,1 1018,3 94 - -
07:49 1,5 0,7 2,6 Sud 8,4 1018,5 94 - -
07:54 1,5 0,7 5,6 SO 9,3 1018,7 94 - -
07:59 1,5 0,7 3,1 SSO 3,7 1018,5 94 - -
08:04 1,6 0,7 2,9 SSE 5,6 1018,7 94 - -
08:09 1,6 0,7 4,0 SO 9,3 1018,7 94 - -
08:14 1,6 0,6 2,9 SO 5,6 1018,9 93 - 5
08:19 1,6 0,6 2,7 SSO 9,3 1018,9 93 - 5
08:24 1,7 0,7 4,3 SO 11,1 1019,0 93 - 5
08:29 1,7 0,7 2,4 SO 11,1 1019,2 93 - 7
08:34 1,7 0,7 5,1 SO 11,1 1019,1 93 - 7
08:39 1,7 0,7 3,2 SO 8,4 1019,1 93 - 9
08:44 1,7 0,7 4,8 SO 11,1 1019,2 93 - 11
08:49 1,7 0,7 3,2 SO 9,3 1019,3 93 - 11
08:54 1,8 0,8 2,6 SO 5,6 1019,4 93 - 12
08:59 1,8 0,8 2,1 SO 9,3 1019,5 93 - 14
09:04 1,8 0,8 3,5 SSO 4,2 1019,6 93 - 16
09:09 1,8 0,8 1,3 SSO 4,2 1019,6 93 - 16
09:14 1,8 0,8 2,4 SSO 9,3 1019,5 93 0,20 21
09:19 1,8 0,8 3,4 Sud 3,7 1019,6 93 0,20 26
09:23 1,8 0,8 2,7 SSO 3,7 1019,6 93 0,20 32
09:29 1,8 0,8 3,1 SSO 5,6 1019,5 93 0,20 47
09:34 1,9 0,9 1,3 SO 9,3 1019,4 93 0,20 67
09:39 1,9 0,9 4,7 SSO 13,0 1019,5 93 0,20 107
09:44 2,1 1,1 2,7 SSO 11,1 1019,4 93 0,20 146
09:49 2,2 1,0 5,3 SO 11,1 1019,5 92 0,20 109
09:54 2,2 1,1 10,8 SSO 14,8 1019,4 92 0,20 130
09:59 2,3 1,2 5,8 SO 14,8 1019,4 92 0,20 149
10:04 2,3 1,0 3,9 SO 11,1 1019,3 91 0,20 74
10:09 2,3 1,0 8,2 Sud 14,8 1019,4 91 0,20 62
10:14 2,3 0,9 2,1 SO 9,3 1019,3 91 - 69
10:19 2,2 0,9 5,5 SSO 11,1 1019,5 91 - 51
10:24 2,2 0,8 3,1 SO 9,3 1019,4 91 - 90
10:29 2,2 0,9 2,1 OSO 9,3 1019,2 91 - 128
10:34 2,3 0,9 5,5 SO 11,1 1019,2 91 - 100
10:39 2,3 1,0 5,8 SO 13,0 1019,4 91 - 97
10:44 2,4 1,1 2,7 SO 3,7 1019,3 91 - 88
10:49 2,4 0,9 2,1 OSO 3,7 1019,3 90 - 79
10:54 2,5 1,0 3,7 SO 5,6 1019,3 90 - 72
10:59 2,5 1,0 1,0 SSO 2,1 1019,4 90 - 67
11:04 2,5 1,0 2,6 SSO 5,6 1019,5 90 - 74
11:09 2,6 1,1 1,9 SO 9,3 1019,4 90 - 90
11:14 2,6 1,1 2,7 OSO 3,7 1019,4 90 - 90
11:19 2,6 1,1 3,1 SSO 11,1 1019,4 90 - 77
11:24 2,6 1,1 2,1 SSO 9,3 1019,6 90 - 69
11:29 2,6 1,0 2,1 SO 6,3 1019,5 89 - 81
11:34 2,6 1,0 5,3 SO 11,1 1019,5 89 - 72
11:39 2,7 1,1 2,6 OSO 5,6 1019,7 89 - 107
11:44 2,7 1,1 2,3 SO 11,1 1019,8 89 - 111
11:49 2,8 1,2 2,3 SO 5,6 1019,9 89 - 102
11:54 2,8 1,2 5,0 SO 9,3 1019,8 89 - 81
11:59 2,8 1,2 2,4 SO 3,7 1019,8 89 - 72
12:04 2,9 1,3   Calme 2,1 1019,9 89 - 70
12:09 2,9 1,3 2,1 SSO 9,3 1019,7 89 - 81
12:14 2,9 1,2 0,2 SO 1,9 1019,8 88 - 70
12:19 3,0 1,2 1,4 SO 3,7 1019,7 88 - 98
12:24 3,1 1,3 3,1 SO 5,6 1019,8 88 - 100
12:29 3,1 1,3 0,6 SO 1,9 1019,8 88 - 88
12:34 3,1 1,2   Calme   1019,7 87 - 74
12:39 3,1 1,2 1,4 SSO 1,9 1019,6 87 - 88
12:44 3,2 1,2 2,4 SO 4,2 1019,9 87 - 109
12:49 3,2 1,2 0,3 SSO 1,9 1019,7 87 - 83
12:54 3,3 1,3 0,5 SO 9,3 1019,7 87 - 327
12:59 3,6 1,6 2,7 OSO 3,7 1019,8 87 - 239
13:04 3,7 1,6 2,7 OSO 6,3 1019,8 86 - 174
13:09 3,7 1,6 2,4 SE 9,3 1019,8 86 0,20 160
13:14 3,8 1,5 0,6 OSO 9,3 1019,8 85 0,40 153
13:19 3,8 1,5 0,8 SO 3,7 1019,8 85 0,60 195
13:24 3,8 1,6 1,1 SO 3,7 1020,0 85 0,80 105
13:29 3,8 1,5 2,6 SO 8,4 1020,0 85 1,00 98
13:34 3,7 1,4 3,4 SO 9,3 1020,1 85 1,20 69
13:39 3,6 1,3 1,8 Sud 2,1 1020,1 85 1,20 74
13:44 3,6 1,4 1,0 SSO 2,1 1020,3 86 1,40 62
13:49 3,4 1,3 1,1 OSO 4,2 1020,2 86 1,60 56
13:54 3,4 1,3   Calme   1020,4 86 1,60 49
13:59 3,4 1,3 0,2 OSO 1,9 1020,6 86 1,80 47
14:04 3,4 1,3 1,3 OSO 3,7 1020,6 86 1,80 67
14:09 3,4 1,3 1,3 OSO 11,1 1020,6 86 1,80 49
14:14 3,4 1,3 3,1 SO 13,0 1020,9 86 1,60 44
14:19 3,3 1,4 0,3 SO   1021,0 87 1,60 33
14:24 3,3 1,4   Calme   1020,9 87 1,40 33
14:29 3,3 1,3   Calme   1020,9 87 1,40 35
14:34 3,3 1,3 0,3 SO 1,9 1020,9 87 1,20 28
14:39 3,3 1,2 4,2 OSO 5,6 1021,1 86 1,20 23
14:44 3,2 1,1 0,2 SO 1,9 1021,3 86 1,20 26
14:49 3,2 1,1 1,8 SO 9,3 1021,5 86 1,00 26
14:54 3,2 1,1 2,1 SSO 5,6 1021,4 86 1,00 23
14:59 3,2 1,1 0,3 SSO 1,9 1021,6 86 1,00 19
15:04 3,2 1,1 0,3 NNO 1,9 1021,5 86 1,00 19
15:09 3,2 1,1 0,3 SSO 2,1 1021,6 86 0,80 14
15:14 3,2 1,1   Calme 1,9 1021,7 86 1,00 14
15:19 3,2 1,1   Calme   1021,8 86 0,80 12

Download your copy of this data-set  here

Our weather-data as stored at Weather Underground. Script original développé par Jim McMurry. Adapté pour le modèle par Leuven-Template.eu

Les données sont envoyées via ces sites météo:

WeatherCloud

Weather Underground

Quebec Weather Network

AWEKAS

HAMweather, WeatherForYou, PWS Weather